Terminal Aerodrome Forecast
Issued by NWS

Home | Current Version | Previous Version | Graphics & Text | Print | Product List | Glossary Off
Versions: 1 2 3 4 5 6 7 8 9 10 11 12 13 14 15 16

000
FTUS43 KDDC 251120
TAFGCK
TAF
KGCK 251120Z 2512/2612 24008KT P6SM SCT090
     FM251800 23013G19KT P6SM FEW120
     FM260000 VRB06KT P6SM SCT120=

USA.gov is the U.S. government's official web portal to all federal, state and local government web resources and services.